Προγνώσεις καιρού υψηλής ανάλυσης για την περιοχή λίμνης Βόλβης - Surf club Stonero, με εξειδικευμένη μετεωρολογική επιμέλεια από τον μετεωρολόγο Χρήστο Χατζούδη και τη WeatherDom. Τα δεδομένα προσφέρουν αναλυτική εικόνα των καιρικών συνθηκών ενός μοντέλου με ανάλυση 1.7 χλμ .
Σποτ: Volvi - lat: 40.650479 long: 23.551660
Ενημέρωση πρόγνωσης: 06/09/2026 03:54
Ανατολή: 06:56 - Δύση: 19:51
Πρώτο φως: 05:57 - Τελευταίο φως: 20:51
06/09
Κυριακή 6 Σεπτεμβρίου Ώρα Καιρός Θερμ. (°C) Υγρασία (%) Άνεμος (Knts) Ριπές (Knts) Διεύθ. 00:00 25° 49% 2 2
01:00 25° 56% 2 3
02:00 25° 58% 3 5
03:00 24° 52% 0 0
04:00 24° 63% 0 0
05:00 24° 63% 2 2
06:00 24° 63% 2 4
07:00 22° 64% 4 6
08:00 23° 62% 4 6
09:00 27° 42% 2 2
10:00 27° 52% 2 3
11:00 27° 60% 3 5
12:00 28° 55% 4 6
13:00 28° 58% 0 0
14:00 29° 55% 3 5
15:00 30° 49% 3 5
16:00 31° 45% 7 10
17:00 31° 46% 10 13
18:00 31° 46% 9 12
19:00 30° 49% 9 12
20:00 29° 54% 5 8
21:00 26° 58% 3 5
22:00 26° 48% 5 8
23:00 26° 57% 2 3
07/09
Δευτέρα 7 Σεπτεμβρίου Ώρα Καιρός Θερμ. (°C) Υγρασία (%) Άνεμος (Knts) Ριπές (Knts) Διεύθ. 00:00 29° 43% 15 18
01:00 28° 47% 11 14
02:00 25° 55% 7 10
03:00 24° 58% 3 5
04:00 22° 60% 3 5
05:00 22° 62% 3 5
06:00 23° 62% 1 4
07:00 24° 57% 1 4
08:00 25° 53% 1 4
09:00 26° 48% 1 4
10:00 28° 42% 1 4
11:00 29° 36% 2 5
12:00 31° 30% 2 5
13:00 31° 29% 3 6
14:00 32° 27% 3 6
15:00 32° 26% 4 7
16:00 32° 27% 4 7
17:00 31° 29% 3 6
18:00 31° 30% 3 6
19:00 29° 36% 2 5
20:00 26° 41% 2 5
21:00 24° 47% 1 4
22:00 24° 48% 1 4
23:00 23° 49% 1 4
08/09
Τρίτη 8 Σεπτεμβρίου Ώρα Καιρός Θερμ. (°C) Υγρασία (%) Άνεμος (Knts) Ριπές (Knts) Διεύθ. 00:00 23° 50% 1 4
01:00 22° 59% 2 6
02:00 22° 69% 4 7
03:00 21° 78% 5 9
04:00 21° 79% 4 8
05:00 20° 80% 4 7
06:00 20° 81% 3 6
07:00 21° 73% 3 6
08:00 22° 65% 2 5
09:00 23° 57% 2 5
10:00 25° 51% 2 5
11:00 26° 45% 2 5
12:00 28° 39% 2 5
13:00 29° 37% 2 5
14:00 30° 35% 3 6
15:00 31° 33% 3 6
16:00 30° 36% 4 7
17:00 30° 38% 5 9
18:00 29° 41% 6 10
19:00 27° 48% 5 8
20:00 25° 54% 3 7
21:00 23° 61% 2 5
22:00 23° 61% 1 3
23:00 22° 62% 0 0
09/09
Τετάρτη 9 Σεπτεμβρίου Ώρα Καιρός Θερμ. (°C) Υγρασία (%) Άνεμος (Knts) Ριπές (Knts) Διεύθ. 00:00 22° 62% 0 0
01:00 21° 64% 0 0
02:00 21° 67% 1 4
03:00 20° 69% 1 4
04:00 20° 72% 1 4
05:00 19° 76% 1 4
06:00 19° 79% 1 4
07:00 20° 74% 1 4
08:00 22° 68% 2 5
09:00 23° 63% 2 5
10:00 25° 56% 2 5
11:00 27° 49% 2 5
12:00 29° 42% 2 5
13:00 30° 40% 3 6
14:00 30° 37% 3 6
15:00 31° 35% 4 7
16:00 30° 38% 5 8
17:00 29° 41% 6 10
18:00 28° 44% 7 11
19:00 26° 50% 4 9
20:00 25° 56% 2 6
21:00 23° 62% 1 4
22:00 23° 66% 1 4
23:00 22° 69% 1 4
10/09
Πέμπτη 10 Σεπτεμβρίου Ώρα Καιρός Θερμ. (°C) Υγρασία (%) Άνεμος (Knts) Ριπές (Knts) Διεύθ. 00:00 22° 73% 1 4
01:00 22° 74% 1 4
02:00 21° 76% 1 4
03:00 21° 77% 1 4
04:00 21° 79% 1 4
05:00 20° 81% 2 5
06:00 20° 83% 2 5
07:00 21° 78% 2 5
08:00 22° 74% 3 6
09:00 23° 69% 3 6
10:00 25° 60% 2 3
11:00 27° 52% 0 0
12:00 29° 43% 0 0
13:00 30° 40% 0 0
14:00 32° 36% 1 4
15:00 33° 33% 1 4
16:00 32° 36% 2 5
17:00 31° 38% 2 5
18:00 30° 41% 3 6
19:00 27° 51% 2 5
20:00 25° 62% 2 5
21:00 22° 72% 1 4
22:00 22° 70% 1 4
23:00 23° 69% 1 4
11/09
Παρασκευή 11 Σεπτεμβρίου Ώρα Καιρός Θερμ. (°C) Υγρασία (%) Άνεμος (Knts) Ριπές (Knts) Διεύθ. 00:00 23° 67% 1 4
01:00 23° 68% 1 4
02:00 22° 69% 1 4
03:00 22° 70% 1 4
04:00 22° 71% 1 4
05:00 21° 72% 1 4
06:00 21° 73% 1 4
07:00 22° 68% 1 4
08:00 24° 64% 2 5
09:00 25° 59% 2 5
10:00 27° 53% 2 5
11:00 29° 46% 2 5
12:00 31° 40% 2 5
13:00 32° 37% 3 6
14:00 33° 35% 3 6
15:00 34° 32% 4 7
16:00 33° 35% 4 7
17:00 33° 38% 3 6
18:00 32° 41% 3 6
19:00 29° 50% 2 5
20:00 27° 60% 2 5
21:00 24° 69% 1 4
22:00 24° 68% 1 4
23:00 24° 67% 1 4
12/09
Σάββατο 12 Σεπτεμβρίου Ώρα Καιρός Θερμ. (°C) Υγρασία (%) Άνεμος (Knts) Ριπές (Knts) Διεύθ. 00:00 24° 66% 1 4
01:00 24° 67% 1 5
02:00 24° 67% 2 5
03:00 24° 68% 3 6
04:00 23° 71% 3 6
05:00 23° 75% 2 5
06:00 22° 78% 2 5
07:00 23° 72% 1 3
08:00 25° 66% 0 0
09:00 26° 60% 0 0
10:00 28° 52% 0 0
11:00 31° 44% 1 4
12:00 33° 36% 1 4
13:00 34° 33% 2 5
14:00 35° 29% 2 5
15:00 36° 26% 3 6
16:00 36° 26% 3 6
17:00 35° 26% 3 6
18:00 35° 26% 3 6
19:00 32° 38% 2 5
20:00 29° 49% 1 5
21:00 26° 61% 1 4
22:00 25° 63% 1 4
23:00 25° 64% 1 4
13/09
Κυριακή 13 Σεπτεμβρίου Ώρα Καιρός Θερμ. (°C) Υγρασία (%) Άνεμος (Knts) Ριπές (Knts) Διεύθ. 00:00 24° 66% 1 4
01:00 24° 64% 1 4
02:00 24° 61% 1 4
03:00 24° 59% 1 4
04:00 24° 59% 1 4
05:00 23° 59% 1 4
06:00 23° 59% 1 4
07:00 25° 54% 1 5
08:00 26° 49% 2 5
09:00 28° 44% 3 6
10:00 30° 39% 3 6
11:00 32° 33% 4 7
12:00 34° 28% 4 7
13:00 34° 27% 6 9
14:00 35° 27% 7 12
15:00 35° 26% 9 14
Developed by Rousis Dimitris - LinkedIn profile
Powered by: WeatherDom - Christos Chatzoudis
Πρόγνωση ανέμου — Volvi Ενημέρωση: 06/09 03:54 Ωριαία Ανά 3 ώρες
Ένταση 0 → 40 kt · μαύρη γραμμή = μέσος άνεμος, χρωματιστός φάκελος = ριπές